createdAt,value
2018-10-09T00:04:55.262Z,99.90
2018-10-09T00:14:56.592Z,99.90
2018-10-09T00:24:57.908Z,99.90
2018-10-09T00:34:59.255Z,99.90
2018-10-09T00:45:01.315Z,99.90
2018-10-09T00:55:02.621Z,99.90
2018-10-09T01:05:03.903Z,99.90
2018-10-09T01:15:05.155Z,99.90
2018-10-09T01:25:06.504Z,99.90
2018-10-09T01:35:07.759Z,99.90
2018-10-09T01:45:09.009Z,99.90
2018-10-09T01:55:10.262Z,99.90
2018-10-09T02:05:11.537Z,99.90
2018-10-09T02:15:12.836Z,99.90
2018-10-09T02:25:14.264Z,99.90
2018-10-09T02:35:16.626Z,99.90
2018-10-09T02:45:17.908Z,99.90
2018-10-09T02:55:19.203Z,99.90
2018-10-09T03:05:20.578Z,99.90
2018-10-09T03:15:21.872Z,99.90
2018-10-09T03:25:23.167Z,99.90
2018-10-09T03:35:24.413Z,99.90
2018-10-09T03:45:26.548Z,99.90
2018-10-09T03:55:27.902Z,99.90
2018-10-09T04:05:29.178Z,99.90
2018-10-09T04:15:30.488Z,99.90
2018-10-09T04:25:31.966Z,99.90
2018-10-09T04:35:33.290Z,99.90
2018-10-09T04:45:34.628Z,99.90
2018-10-09T04:55:35.960Z,99.90
2018-10-09T05:05:37.253Z,99.90
2018-10-09T05:15:38.514Z,99.90
2018-10-09T05:25:40.556Z,99.90
2018-10-09T05:35:41.813Z,99.90
2018-10-09T05:45:43.879Z,99.90
2018-10-09T05:55:45.299Z,99.90
2018-10-09T06:05:46.607Z,99.90
2018-10-09T06:15:47.909Z,99.90
2018-10-09T06:25:49.954Z,99.90
2018-10-09T06:35:51.384Z,99.90
2018-10-09T06:45:52.628Z,99.90
2018-10-09T06:55:54.641Z,99.90
2018-10-09T07:05:56.838Z,99.90
2018-10-09T07:15:58.096Z,99.90
2018-10-09T07:25:59.383Z,99.90
2018-10-09T07:36:00.675Z,99.90
2018-10-09T07:46:01.954Z,99.90
2018-10-09T07:56:03.238Z,99.90
2018-10-09T08:06:05.293Z,99.90
2018-10-09T08:16:06.570Z,99.90
2018-10-09T08:26:07.864Z,99.90
2018-10-09T08:36:09.108Z,99.90
2018-10-09T08:46:10.395Z,99.90
2018-10-09T08:56:11.696Z,99.90
2018-10-09T09:06:12.946Z,91.70
2018-10-09T09:16:14.193Z,59.80
2018-10-09T09:26:16.402Z,51.40
2018-10-09T09:36:17.585Z,51.30
2018-10-09T09:46:18.898Z,45.50
2018-10-09T09:56:20.151Z,56.50
2018-10-09T10:06:21.701Z,60.30
2018-10-09T10:16:22.982Z,65.70
2018-10-09T10:26:24.275Z,66.80
2018-10-09T10:36:25.570Z,66.40
2018-10-09T10:46:26.871Z,71.20
2018-10-09T10:56:28.147Z,73.10
2018-10-09T11:06:29.456Z,72.00
2018-10-09T11:16:30.718Z,71.10
2018-10-09T11:26:31.998Z,74.20
2018-10-09T11:36:34.038Z,71.50
2018-10-09T11:46:35.305Z,71.50
2018-10-09T11:56:37.338Z,67.30
2018-10-09T12:06:38.602Z,67.30
2018-10-09T12:16:40.645Z,69.50
2018-10-09T12:26:41.938Z,69.50
2018-10-09T12:36:43.206Z,71.90
2018-10-09T12:46:45.264Z,67.70
2018-10-09T12:56:46.543Z,67.00
2018-10-09T13:06:47.853Z,67.80
2018-10-09T13:16:49.178Z,70.40
2018-10-09T13:26:50.490Z,70.50
2018-10-09T13:36:52.603Z,74.20
2018-10-09T13:46:53.882Z,73.70
2018-10-09T13:56:55.172Z,74.40
2018-10-09T14:06:56.454Z,74.10
2018-10-09T14:16:57.752Z,70.80
2018-10-09T14:26:58.991Z,73.30
2018-10-09T14:37:00.286Z,72.80
2018-10-09T14:47:01.558Z,73.90
2018-10-09T14:57:06.465Z,74.40
2018-10-09T15:07:07.735Z,75.60
2018-10-09T15:17:09.128Z,79.10
2018-10-09T15:27:10.326Z,78.80
2018-10-09T15:37:11.608Z,81.00
2018-10-09T15:47:12.903Z,81.90
2018-10-09T15:57:14.182Z,82.90
2018-10-09T16:07:15.500Z,87.60
2018-10-09T16:17:16.774Z,90.40
2018-10-09T16:27:18.094Z,99.90
2018-10-09T16:37:19.384Z,99.90
2018-10-09T16:47:21.263Z,99.90
2018-10-09T16:57:22.591Z,99.90
2018-10-09T17:07:23.866Z,99.90
2018-10-09T17:17:25.163Z,99.90
2018-10-09T17:27:26.475Z,99.90
2018-10-09T17:37:27.812Z,99.90
2018-10-09T17:47:30.197Z,99.90
2018-10-09T17:57:31.770Z,99.90
2018-10-09T18:07:33.144Z,99.90
2018-10-09T18:17:34.436Z,99.90
2018-10-09T18:27:36.011Z,99.90
2018-10-09T18:37:37.305Z,99.90
2018-10-09T18:47:38.612Z,99.90
2018-10-09T18:57:39.947Z,99.90
2018-10-09T19:07:41.298Z,99.90
2018-10-09T19:17:42.639Z,99.90
2018-10-09T19:27:43.944Z,99.90
2018-10-09T19:37:45.298Z,99.90
2018-10-09T19:47:46.571Z,99.90
2018-10-09T19:57:47.840Z,99.90
2018-10-09T20:07:49.201Z,99.90
2018-10-09T20:17:51.165Z,99.90
2018-10-09T20:27:52.438Z,99.90
2018-10-09T20:37:53.701Z,99.90
2018-10-09T20:47:54.953Z,99.90
2018-10-09T20:57:56.237Z,99.90
2018-10-09T21:07:57.501Z,99.90
2018-10-09T21:17:59.584Z,99.90
2018-10-09T21:28:00.815Z,99.90
2018-10-09T21:38:02.851Z,99.90
2018-10-09T21:48:04.115Z,99.90
2018-10-09T21:58:05.398Z,99.90
2018-10-09T22:08:06.694Z,99.90
2018-10-09T22:18:08.541Z,99.90
2018-10-09T22:28:09.817Z,99.90
2018-10-09T22:38:11.835Z,99.90
2018-10-09T22:48:13.863Z,99.90
2018-10-09T22:58:15.132Z,99.90
2018-10-09T23:08:17.168Z,99.90
2018-10-09T23:18:18.462Z,99.90
2018-10-09T23:28:20.489Z,99.90
2018-10-09T23:38:22.522Z,99.90
2018-10-09T23:48:23.782Z,99.90
2018-10-09T23:58:25.076Z,99.90
